createdAt,value
2018-12-06T00:01:58.549Z,12.6
2018-12-06T00:11:57.755Z,13.1
2018-12-06T00:21:56.965Z,13.2
2018-12-06T00:31:56.174Z,13.1
2018-12-06T00:41:55.391Z,12.7
2018-12-06T00:51:54.603Z,13.2
2018-12-06T01:01:53.810Z,13.2
2018-12-06T01:11:53.020Z,12.5
2018-12-06T01:21:52.221Z,13.1
2018-12-06T01:31:51.428Z,13
2018-12-06T01:41:50.642Z,12.7
2018-12-06T01:51:49.844Z,13.1
2018-12-06T02:01:49.048Z,12.9
2018-12-06T02:11:48.252Z,12.9
2018-12-06T02:21:47.465Z,13
2018-12-06T02:31:46.665Z,12.3
2018-12-06T02:41:45.870Z,13
2018-12-06T02:51:45.086Z,13.2
2018-12-06T03:01:44.287Z,13.1
2018-12-06T03:11:43.484Z,12.8
2018-12-06T03:21:42.692Z,12.4
2018-12-06T03:31:41.897Z,12.5
2018-12-06T03:41:41.102Z,13.1
2018-12-06T03:51:40.406Z,12.6
2018-12-06T04:01:39.519Z,12.7
2018-12-06T04:11:38.726Z,13
2018-12-06T04:21:37.928Z,12.8
2018-12-06T04:31:37.145Z,12.6
2018-12-06T04:41:36.348Z,13.2
2018-12-06T04:51:35.569Z,12.5
2018-12-06T05:01:34.763Z,13.1
2018-12-06T05:11:33.976Z,12.9
2018-12-06T05:21:33.187Z,13.2
2018-12-06T05:31:32.408Z,12.5
2018-12-06T05:41:31.620Z,12.9
2018-12-06T05:51:30.825Z,12.6
2018-12-06T06:01:30.036Z,13.2
2018-12-06T06:11:29.238Z,13
2018-12-06T06:21:28.449Z,13.2
2018-12-06T06:31:27.658Z,13
2018-12-06T06:41:26.959Z,13
2018-12-06T06:51:26.066Z,12.9
2018-12-06T07:01:25.263Z,13.1
2018-12-06T07:11:24.478Z,12.5
2018-12-06T07:21:23.676Z,13
2018-12-06T07:31:22.878Z,13.7
2018-12-06T07:41:22.088Z,13.7
2018-12-06T07:51:21.287Z,14.6
2018-12-06T08:01:20.495Z,14.7
2018-12-06T08:11:19.702Z,13.8
2018-12-06T08:21:18.902Z,13.8
2018-12-06T08:31:18.104Z,14
2018-12-06T08:41:17.312Z,14.7
2018-12-06T08:51:16.516Z,14.7
2018-12-06T09:01:15.720Z,14.6
2018-12-06T09:11:14.916Z,14
2018-12-06T09:21:14.121Z,13.8
2018-12-06T09:31:13.327Z,14.1
2018-12-06T09:41:12.541Z,14.7
2018-12-06T09:51:11.734Z,14.7
2018-12-06T10:01:10.944Z,14.3
2018-12-06T10:11:10.143Z,14.4
2018-12-06T10:21:09.342Z,14.7
2018-12-06T10:31:08.548Z,13.8
2018-12-06T10:41:07.750Z,14.1
2018-12-06T10:51:07.646Z,14.7
2018-12-06T11:01:06.160Z,14.1
2018-12-06T11:11:05.362Z,14.3
2018-12-06T11:21:04.567Z,14.3
2018-12-06T11:31:03.766Z,14.7
2018-12-06T11:41:02.976Z,14.2
2018-12-06T11:51:02.172Z,14.7
2018-12-06T12:01:01.378Z,14.6
2018-12-06T12:11:00.575Z,14.2
2018-12-06T12:20:59.783Z,13.3
2018-12-06T12:30:58.984Z,12.9
2018-12-06T12:40:58.190Z,13.2
2018-12-06T12:50:57.390Z,13.3
2018-12-06T13:00:56.592Z,12.6
2018-12-06T13:10:55.800Z,12.5
2018-12-06T13:20:54.998Z,13.2
2018-12-06T13:30:54.201Z,13.3
2018-12-06T13:40:53.402Z,12.8
2018-12-06T13:50:52.611Z,12.9
2018-12-06T14:00:52.027Z,13
2018-12-06T14:10:51.010Z,12.9
2018-12-06T14:20:50.215Z,12.9
2018-12-06T14:30:49.422Z,12.7
2018-12-06T14:40:48.623Z,13
2018-12-06T14:50:47.828Z,13.1
2018-12-06T15:00:47.029Z,12.6
2018-12-06T15:10:46.240Z,13.1
2018-12-06T15:20:45.448Z,12.9
2018-12-06T15:30:44.655Z,13
2018-12-06T15:40:43.851Z,12.7
2018-12-06T15:50:43.058Z,13
2018-12-06T16:00:42.267Z,13.2
2018-12-06T16:10:41.463Z,12.7
2018-12-06T16:20:40.669Z,12.7
2018-12-06T16:30:39.878Z,12.7
2018-12-06T16:40:39.088Z,13
2018-12-06T16:50:38.290Z,13
2018-12-06T17:00:37.502Z,12.9
2018-12-06T17:10:36.697Z,13.1
2018-12-06T17:20:35.903Z,12.9
2018-12-06T17:30:35.108Z,13
2018-12-06T17:40:34.319Z,13.1
2018-12-06T17:50:33.519Z,12.5
2018-12-06T18:00:32.725Z,13.1
2018-12-06T18:10:31.943Z,12.8
2018-12-06T18:20:31.141Z,12.5
2018-12-06T18:30:30.347Z,12.7
2018-12-06T18:40:29.550Z,13.1
2018-12-06T18:50:28.757Z,12.9
2018-12-06T19:00:27.964Z,12.8
2018-12-06T19:10:27.169Z,13.1
2018-12-06T19:20:26.415Z,12.6
2018-12-06T19:30:25.574Z,13.2
2018-12-06T19:40:24.781Z,13.1
2018-12-06T19:50:23.982Z,12.5
2018-12-06T20:00:23.295Z,12.8
2018-12-06T20:10:22.486Z,13
2018-12-06T20:20:23.720Z,13
2018-12-06T20:30:20.809Z,12.7
2018-12-06T20:40:20.020Z,13
2018-12-06T20:50:19.223Z,13
2018-12-06T21:00:18.440Z,13
2018-12-06T21:10:17.643Z,12.8
2018-12-06T21:20:16.855Z,13.1
2018-12-06T21:30:16.061Z,12.8
2018-12-06T21:40:15.271Z,12.6
2018-12-06T21:50:14.468Z,13.1
2018-12-06T22:00:13.677Z,12.4
2018-12-06T22:10:12.882Z,13.2
2018-12-06T22:20:12.091Z,13.2
2018-12-06T22:30:11.754Z,12.9
2018-12-06T22:40:10.495Z,13.2
2018-12-06T22:50:09.703Z,13
2018-12-06T23:00:08.906Z,12.9
2018-12-06T23:10:08.111Z,12.8
2018-12-06T23:20:07.315Z,12.8
2018-12-06T23:30:06.514Z,12.9
2018-12-06T23:40:05.729Z,12.8
2018-12-06T23:50:04.926Z,12.6
